Aeroporto :
LOGIN :

Iscrizione | Disclaimer

   EN    FR    IT 

 










Sommario :    VFR   VFR Marginale   IFR   IFR Intensivo   IFR Molto Intensivo
Visibilità : 
Base nubi : 
>= 8 km
>= 3000ft
5 / 8 km
1000 / 3000 ft
1500m / 5 km
500 / 1000 ft
800 / 1500m
200 / 500 ft
< 800m
< 200 ft
Simboli :   Temporali  Nebbia  Neve Forte  Precipitazioni Forti  Vento > 20 kt
SIGMETs :   Varie  Temporali  Ghiacco  Turbolenza  Onda orograficha  Ceneri Vulcaniche






- Altitudine del aeroporto : 584 ft


LFPV - Villacoublay Vélizy

ULTIMO METAR :
  • 200800Z AUTO 03007KT CAVOK 02/00 Q1046 TEMPO BKN008

METARs OBSOLETI :
  • 200730Z AUTO 04007KT CAVOK 02/00 Q1045 TEMPO BKN008
  • 200700Z AUTO 04008KT CAVOK 02/00 Q1045 TEMPO BKN008
  • 200630Z AUTO 04008KT CAVOK 02/00 Q1045 TEMPO BKN008
  • 200600Z AUTO 03008KT CAVOK 02/00 Q1045 NOSIG
  • 200530Z AUTO 03009KT 350V070 CAVOK 02/00 Q1045 TEMPO 2000 BR OVC002

TAF AMD TAF LFPV
Valido dal 20 a 05 ore il 21 a 03 ore UTC


200524Z 2005/2103 03010KT CAVOK
PROB40
TEMPO 2008/2014 BKN008
PROB40 2022/2103 2000 BR OVC003



MetMap, La meteo Aeronautica in un colpo d'occhio ! - Copyright ORBIFLY Dicembre 2007 - Disclaimer

ORBIFLY MET'MAP TEAM :

Programmazione e sviluppo : Alexandra Zaïnal
Concezione : Baudouin d'Aumeries
Aiuto per la programmazione : Marc-Olivier Méhu
Supporto tecnico e logistico : Manuel Goepfert
Aiuto per la traduzione : Arnaldo La Scala

Contatto : metmap@orbifly.com




FONTI E CREDITI :

   NOAA